sensor_id;sensor_type;location;lat;lon;timestamp;pressure;altitude;pressure_sealevel;temperature;humidity
35952;BME280;22035;51.406;16.194;2023-04-24T00:01:45;98976.48;;;31.83;25.21
35952;BME280;22035;51.406;16.194;2023-04-24T00:04:11;98972.49;;;31.77;25.32
35952;BME280;22035;51.406;16.194;2023-04-24T00:06:37;98969.06;;;31.85;25.19
35952;BME280;22035;51.406;16.194;2023-04-24T00:09:03;98966.29;;;31.99;25.08
35952;BME280;22035;51.406;16.194;2023-04-24T00:11:29;98963.23;;;31.84;25.27
35952;BME280;22035;51.406;16.194;2023-04-24T00:13:55;98963.34;;;31.89;25.11
35952;BME280;22035;51.406;16.194;2023-04-24T00:16:21;98957.39;;;31.92;25.13
35952;BME280;22035;51.406;16.194;2023-04-24T00:18:47;98950.95;;;31.79;25.41
35952;BME280;22035;51.406;16.194;2023-04-24T00:21:12;98948.31;;;31.90;25.16
35952;BME280;22035;51.406;16.194;2023-04-24T00:23:38;98948.13;;;31.84;25.33
35952;BME280;22035;51.406;16.194;2023-04-24T00:26:04;98945.90;;;31.76;25.25
35952;BME280;22035;51.406;16.194;2023-04-24T00:28:29;98944.09;;;31.87;25.26
35952;BME280;22035;51.406;16.194;2023-04-24T00:30:55;98940.83;;;31.88;25.27
35952;BME280;22035;51.406;16.194;2023-04-24T00:33:21;98939.81;;;31.82;25.29
35952;BME280;22035;51.406;16.194;2023-04-24T00:35:46;98936.88;;;31.82;25.34
35952;BME280;22035;51.406;16.194;2023-04-24T00:38:12;98937.45;;;31.97;25.11
35952;BME280;22035;51.406;16.194;2023-04-24T00:40:38;98937.49;;;31.98;25.10
35952;BME280;22035;51.406;16.194;2023-04-24T00:43:03;98934.98;;;31.89;25.13
35952;BME280;22035;51.406;16.194;2023-04-24T00:45:29;98931.34;;;31.88;25.16
35952;BME280;22035;51.406;16.194;2023-04-24T00:47:55;98927.98;;;31.91;25.07
35952;BME280;22035;51.406;16.194;2023-04-24T00:50:21;98924.20;;;31.85;25.22
35952;BME280;22035;51.406;16.194;2023-04-24T00:52:47;98921.27;;;31.90;24.87
35952;BME280;22035;51.406;16.194;2023-04-24T00:55:13;98918.43;;;31.96;25.16
35952;BME280;22035;51.406;16.194;2023-04-24T00:57:38;98912.35;;;31.95;25.17
35952;BME280;22035;51.406;16.194;2023-04-24T01:00:07;98908.55;;;31.94;25.11
35952;BME280;22035;51.406;16.194;2023-04-24T01:02:33;98903.12;;;31.91;25.18
35952;BME280;22035;51.406;16.194;2023-04-24T01:04:59;98903.25;;;31.88;25.16
35952;BME280;22035;51.406;16.194;2023-04-24T01:07:24;98904.84;;;31.91;25.16
35952;BME280;22035;51.406;16.194;2023-04-24T01:09:51;98901.51;;;31.83;25.29
35952;BME280;22035;51.406;16.194;2023-04-24T01:12:17;98901.85;;;31.84;25.36
35952;BME280;22035;51.406;16.194;2023-04-24T01:14:43;98902.10;;;31.87;25.31
35952;BME280;22035;51.406;16.194;2023-04-24T01:17:08;98899.41;;;31.83;25.29
35952;BME280;22035;51.406;16.194;2023-04-24T01:19:34;98892.61;;;31.86;25.40
35952;BME280;22035;51.406;16.194;2023-04-24T01:22:02;98889.83;;;31.87;25.37
35952;BME280;22035;51.406;16.194;2023-04-24T01:24:28;98885.47;;;31.91;25.60
35952;BME280;22035;51.406;16.194;2023-04-24T01:26:54;98887.50;;;31.94;25.54
35952;BME280;22035;51.406;16.194;2023-04-24T01:29:20;98888.74;;;31.97;25.51
35952;BME280;22035;51.406;16.194;2023-04-24T01:31:46;98887.93;;;31.99;25.41
35952;BME280;22035;51.406;16.194;2023-04-24T01:34:12;98887.68;;;31.99;25.38
35952;BME280;22035;51.406;16.194;2023-04-24T01:36:38;98880.03;;;32.04;25.32
35952;BME280;22035;51.406;16.194;2023-04-24T01:39:05;98880.99;;;31.89;25.43
35952;BME280;22035;51.406;16.194;2023-04-24T01:41:31;98879.44;;;31.95;25.39
35952;BME280;22035;51.406;16.194;2023-04-24T01:43:57;98875.30;;;31.87;25.41
35952;BME280;22035;51.406;16.194;2023-04-24T01:46:24;98875.03;;;31.89;25.43
35952;BME280;22035;51.406;16.194;2023-04-24T01:48:51;98873.45;;;31.99;25.36
35952;BME280;22035;51.406;16.194;2023-04-24T01:51:17;98873.21;;;31.98;25.43
35952;BME280;22035;51.406;16.194;2023-04-24T01:53:43;98874.36;;;31.97;25.47
35952;BME280;22035;51.406;16.194;2023-04-24T01:56:08;98869.44;;;31.90;25.50
35952;BME280;22035;51.406;16.194;2023-04-24T01:58:35;98868.24;;;31.88;25.53
35952;BME280;22035;51.406;16.194;2023-04-24T02:01:00;98868.43;;;31.84;25.43
35952;BME280;22035;51.406;16.194;2023-04-24T02:03:26;98863.90;;;31.85;25.30
35952;BME280;22035;51.406;16.194;2023-04-24T02:05:51;98862.48;;;31.93;25.53
35952;BME280;22035;51.406;16.194;2023-04-24T02:08:17;98861.78;;;32.01;25.44
35952;BME280;22035;51.406;16.194;2023-04-24T02:10:43;98859.84;;;31.89;25.59
35952;BME280;22035;51.406;16.194;2023-04-24T02:13:08;98856.30;;;31.87;25.56
35952;BME280;22035;51.406;16.194;2023-04-24T02:15:34;98852.85;;;31.89;25.70
35952;BME280;22035;51.406;16.194;2023-04-24T02:18:00;98846.45;;;31.87;25.91
35952;BME280;22035;51.406;16.194;2023-04-24T02:20:25;98843.45;;;32.02;25.73
35952;BME280;22035;51.406;16.194;2023-04-24T02:22:51;98837.01;;;32.12;25.70
35952;BME280;22035;51.406;16.194;2023-04-24T02:25:17;98828.63;;;31.89;25.85
35952;BME280;22035;51.406;16.194;2023-04-24T02:27:42;98825.53;;;31.97;25.83
35952;BME280;22035;51.406;16.194;2023-04-24T02:30:09;98826.34;;;31.90;25.90
35952;BME280;22035;51.406;16.194;2023-04-24T02:32:34;98824.58;;;31.92;25.88
35952;BME280;22035;51.406;16.194;2023-04-24T02:35:00;98827.37;;;31.84;26.00
35952;BME280;22035;51.406;16.194;2023-04-24T02:37:26;98828.36;;;31.88;25.98
35952;BME280;22035;51.406;16.194;2023-04-24T02:39:51;98827.94;;;31.78;25.94
35952;BME280;22035;51.406;16.194;2023-04-24T02:42:17;98825.09;;;31.81;26.09
35952;BME280;22035;51.406;16.194;2023-04-24T02:44:42;98820.97;;;31.75;26.15
35952;BME280;22035;51.406;16.194;2023-04-24T02:47:08;98818.30;;;31.83;26.16
35952;BME280;22035;51.406;16.194;2023-04-24T02:49:34;98819.44;;;31.80;26.33
35952;BME280;22035;51.406;16.194;2023-04-24T02:51:59;98820.72;;;31.76;26.26
35952;BME280;22035;51.406;16.194;2023-04-24T02:54:25;98818.68;;;31.83;26.19
35952;BME280;22035;51.406;16.194;2023-04-24T02:56:50;98816.68;;;31.72;26.40
35952;BME280;22035;51.406;16.194;2023-04-24T02:59:16;98812.05;;;31.73;26.37
35952;BME280;22035;51.406;16.194;2023-04-24T03:01:42;98805.21;;;31.68;26.59
35952;BME280;22035;51.406;16.194;2023-04-24T03:04:07;98796.59;;;31.77;26.48
35952;BME280;22035;51.406;16.194;2023-04-24T03:06:33;98792.01;;;31.76;26.47
35952;BME280;22035;51.406;16.194;2023-04-24T03:08:59;98796.09;;;31.80;26.47
35952;BME280;22035;51.406;16.194;2023-04-24T03:11:24;98796.88;;;31.78;26.40
35952;BME280;22035;51.406;16.194;2023-04-24T03:13:50;98798.03;;;31.73;26.47
35952;BME280;22035;51.406;16.194;2023-04-24T03:16:15;98794.17;;;31.82;26.42
35952;BME280;22035;51.406;16.194;2023-04-24T03:18:41;98791.09;;;31.81;26.36
35952;BME280;22035;51.406;16.194;2023-04-24T03:21:07;98793.18;;;31.72;26.49
35952;BME280;22035;51.406;16.194;2023-04-24T03:23:32;98795.58;;;31.81;26.48
35952;BME280;22035;51.406;16.194;2023-04-24T03:25:58;98802.68;;;31.82;26.36
35952;BME280;22035;51.406;16.194;2023-04-24T03:28:24;98809.35;;;31.81;26.57
35952;BME280;22035;51.406;16.194;2023-04-24T03:30:50;98813.82;;;31.96;26.42
35952;BME280;22035;51.406;16.194;2023-04-24T03:33:15;98808.62;;;32.07;26.20
35952;BME280;22035;51.406;16.194;2023-04-24T03:35:41;98799.76;;;31.87;26.52
35952;BME280;22035;51.406;16.194;2023-04-24T03:38:07;98802.30;;;31.88;26.50
35952;BME280;22035;51.406;16.194;2023-04-24T03:40:32;98802.75;;;31.88;26.52
35952;BME280;22035;51.406;16.194;2023-04-24T03:42:58;98804.44;;;31.95;26.44
35952;BME280;22035;51.406;16.194;2023-04-24T03:45:23;98805.96;;;31.79;26.48
35952;BME280;22035;51.406;16.194;2023-04-24T03:47:49;98803.26;;;31.83;26.41
35952;BME280;22035;51.406;16.194;2023-04-24T03:50:15;98804.42;;;31.87;26.47
35952;BME280;22035;51.406;16.194;2023-04-24T03:52:40;98806.23;;;31.92;26.39
35952;BME280;22035;51.406;16.194;2023-04-24T03:55:07;98803.85;;;31.86;26.32
35952;BME280;22035;51.406;16.194;2023-04-24T03:57:32;98801.12;;;31.84;26.65
35952;BME280;22035;51.406;16.194;2023-04-24T03:59:58;98802.88;;;31.80;26.65
35952;BME280;22035;51.406;16.194;2023-04-24T04:02:24;98799.31;;;31.88;26.67
35952;BME280;22035;51.406;16.194;2023-04-24T04:04:49;98798.72;;;31.92;26.52
35952;BME280;22035;51.406;16.194;2023-04-24T04:07:15;98797.94;;;31.97;26.42
35952;BME280;22035;51.406;16.194;2023-04-24T04:09:41;98801.00;;;31.87;26.47
35952;BME280;22035;51.406;16.194;2023-04-24T04:12:06;98804.59;;;32.02;26.61
35952;BME280;22035;51.406;16.194;2023-04-24T04:14:32;98811.68;;;32.11;26.46
35952;BME280;22035;51.406;16.194;2023-04-24T04:16:57;98815.19;;;32.01;26.55
35952;BME280;22035;51.406;16.194;2023-04-24T04:19:23;98820.40;;;32.17;26.28
35952;BME280;22035;51.406;16.194;2023-04-24T04:21:49;98815.04;;;31.96;26.37
35952;BME280;22035;51.406;16.194;2023-04-24T04:24:14;98818.45;;;32.04;26.18
35952;BME280;22035;51.406;16.194;2023-04-24T04:26:40;98817.23;;;31.88;26.21
35952;BME280;22035;51.406;16.194;2023-04-24T04:29:06;98824.99;;;31.96;26.00
35952;BME280;22035;51.406;16.194;2023-04-24T04:31:31;98822.62;;;31.93;26.00
35952;BME280;22035;51.406;16.194;2023-04-24T04:33:57;98817.85;;;31.79;26.08
35952;BME280;22035;51.406;16.194;2023-04-24T04:36:22;98816.96;;;31.81;25.97
35952;BME280;22035;51.406;16.194;2023-04-24T04:38:48;98816.47;;;31.74;25.98
35952;BME280;22035;51.406;16.194;2023-04-24T04:41:14;98815.05;;;31.74;25.89
35952;BME280;22035;51.406;16.194;2023-04-24T04:43:39;98815.49;;;31.72;25.83
35952;BME280;22035;51.406;16.194;2023-04-24T04:46:05;98814.36;;;31.71;25.87
35952;BME280;22035;51.406;16.194;2023-04-24T04:48:30;98818.58;;;31.71;25.81
35952;BME280;22035;51.406;16.194;2023-04-24T04:50:56;98821.90;;;31.71;25.73
35952;BME280;22035;51.406;16.194;2023-04-24T04:53:22;98826.97;;;31.76;25.54
35952;BME280;22035;51.406;16.194;2023-04-24T04:55:47;98827.27;;;31.85;25.57
35952;BME280;22035;51.406;16.194;2023-04-24T04:58:13;98827.81;;;31.83;25.50
35952;BME280;22035;51.406;16.194;2023-04-24T05:00:39;98832.07;;;31.89;25.48
35952;BME280;22035;51.406;16.194;2023-04-24T05:03:04;98835.92;;;31.80;25.57
35952;BME280;22035;51.406;16.194;2023-04-24T05:05:30;98836.98;;;31.71;25.60
35952;BME280;22035;51.406;16.194;2023-04-24T05:07:55;98833.79;;;31.72;25.55
35952;BME280;22035;51.406;16.194;2023-04-24T05:10:21;98837.37;;;31.72;25.51
35952;BME280;22035;51.406;16.194;2023-04-24T05:12:47;98838.52;;;31.72;25.45
35952;BME280;22035;51.406;16.194;2023-04-24T05:15:13;98838.09;;;31.71;25.39
35952;BME280;22035;51.406;16.194;2023-04-24T05:17:38;98835.90;;;31.69;25.37
35952;BME280;22035;51.406;16.194;2023-04-24T05:20:05;98835.79;;;31.73;25.28
35952;BME280;22035;51.406;16.194;2023-04-24T05:22:31;98837.50;;;31.77;25.27
35952;BME280;22035;51.406;16.194;2023-04-24T05:24:57;98837.64;;;31.82;25.24
35952;BME280;22035;51.406;16.194;2023-04-24T05:27:22;98837.26;;;31.89;25.33
35952;BME280;22035;51.406;16.194;2023-04-24T05:29:48;98842.03;;;31.91;25.27
35952;BME280;22035;51.406;16.194;2023-04-24T05:32:14;98839.18;;;31.87;25.41
35952;BME280;22035;51.406;16.194;2023-04-24T05:34:39;98837.43;;;31.84;25.41
35952;BME280;22035;51.406;16.194;2023-04-24T05:37:05;98838.17;;;31.85;25.33
35952;BME280;22035;51.406;16.194;2023-04-24T05:39:31;98839.44;;;31.80;25.38
35952;BME280;22035;51.406;16.194;2023-04-24T05:41:56;98842.49;;;31.79;25.32
35952;BME280;22035;51.406;16.194;2023-04-24T05:44:22;98844.61;;;31.78;25.25
35952;BME280;22035;51.406;16.194;2023-04-24T05:46:48;98846.26;;;31.76;25.21
35952;BME280;22035;51.406;16.194;2023-04-24T05:49:13;98850.57;;;31.72;25.19
35952;BME280;22035;51.406;16.194;2023-04-24T05:51:39;98851.74;;;31.73;25.17
35952;BME280;22035;51.406;16.194;2023-04-24T05:54:04;98852.02;;;31.84;24.98
35952;BME280;22035;51.406;16.194;2023-04-24T05:56:30;98855.46;;;31.80;25.00
35952;BME280;22035;51.406;16.194;2023-04-24T05:58:56;98857.98;;;31.57;25.27
35952;BME280;22035;51.406;16.194;2023-04-24T06:01:22;98857.69;;;31.65;25.14
35952;BME280;22035;51.406;16.194;2023-04-24T06:03:48;98858.81;;;31.73;24.98
35952;BME280;22035;51.406;16.194;2023-04-24T06:06:14;98862.25;;;31.71;24.96
35952;BME280;22035;51.406;16.194;2023-04-24T06:08:39;98865.82;;;31.70;24.93
35952;BME280;22035;51.406;16.194;2023-04-24T06:11:05;98868.43;;;31.69;24.92
35952;BME280;22035;51.406;16.194;2023-04-24T06:13:30;98872.35;;;31.70;24.87
35952;BME280;22035;51.406;16.194;2023-04-24T06:15:56;98870.95;;;31.77;24.75
35952;BME280;22035;51.406;16.194;2023-04-24T06:18:22;98872.59;;;31.76;24.74
35952;BME280;22035;51.406;16.194;2023-04-24T06:20:47;98877.16;;;31.77;24.70
35952;BME280;22035;51.406;16.194;2023-04-24T06:23:13;98878.54;;;31.69;24.77
35952;BME280;22035;51.406;16.194;2023-04-24T06:25:38;98878.26;;;31.68;24.72
35952;BME280;22035;51.406;16.194;2023-04-24T06:28:04;98878.96;;;31.76;24.63
35952;BME280;22035;51.406;16.194;2023-04-24T06:30:30;98878.28;;;31.73;24.63
35952;BME280;22035;51.406;16.194;2023-04-24T06:32:55;98875.80;;;31.69;24.65
35952;BME280;22035;51.406;16.194;2023-04-24T06:35:21;98878.97;;;31.74;24.65
35952;BME280;22035;51.406;16.194;2023-04-24T06:37:46;98877.77;;;31.79;24.59
35952;BME280;22035;51.406;16.194;2023-04-24T06:40:12;98874.09;;;31.85;24.51
35952;BME280;22035;51.406;16.194;2023-04-24T06:42:38;98872.81;;;31.69;24.69
35952;BME280;22035;51.406;16.194;2023-04-24T06:45:05;98876.09;;;31.71;24.63
35952;BME280;22035;51.406;16.194;2023-04-24T06:47:30;98880.49;;;31.77;24.56
35952;BME280;22035;51.406;16.194;2023-04-24T06:49:56;98881.10;;;31.75;24.57
35952;BME280;22035;51.406;16.194;2023-04-24T06:52:22;98880.28;;;31.74;24.57
35952;BME280;22035;51.406;16.194;2023-04-24T06:54:48;98877.07;;;31.63;24.66
35952;BME280;22035;51.406;16.194;2023-04-24T06:57:13;98877.73;;;31.65;24.63
35952;BME280;22035;51.406;16.194;2023-04-24T06:59:39;98873.19;;;31.76;24.46
35952;BME280;22035;51.406;16.194;2023-04-24T07:02:05;98873.83;;;31.72;24.47
35952;BME280;22035;51.406;16.194;2023-04-24T07:04:30;98873.75;;;31.69;24.48
35952;BME280;22035;51.406;16.194;2023-04-24T07:06:56;98875.95;;;31.74;24.41
35952;BME280;22035;51.406;16.194;2023-04-24T07:09:22;98873.01;;;31.69;24.47
35952;BME280;22035;51.406;16.194;2023-04-24T07:11:48;98869.25;;;31.67;24.45
35952;BME280;22035;51.406;16.194;2023-04-24T07:14:14;98869.21;;;31.76;24.32
35952;BME280;22035;51.406;16.194;2023-04-24T07:16:39;98868.59;;;31.71;24.37
35952;BME280;22035;51.406;16.194;2023-04-24T07:19:05;98870.43;;;31.71;24.34
35952;BME280;22035;51.406;16.194;2023-04-24T07:21:31;98870.95;;;31.71;24.33
35952;BME280;22035;51.406;16.194;2023-04-24T07:23:56;98869.15;;;31.67;24.37
35952;BME280;22035;51.406;16.194;2023-04-24T07:26:22;98868.31;;;31.72;24.29
35952;BME280;22035;51.406;16.194;2023-04-24T07:28:48;98869.40;;;31.73;24.26
35952;BME280;22035;51.406;16.194;2023-04-24T07:31:13;98866.75;;;31.70;24.27
35952;BME280;22035;51.406;16.194;2023-04-24T07:33:39;98866.75;;;31.71;24.25
35952;BME280;22035;51.406;16.194;2023-04-24T07:36:05;98865.05;;;31.78;24.16
35952;BME280;22035;51.406;16.194;2023-04-24T07:38:30;98865.10;;;31.74;24.20
35952;BME280;22035;51.406;16.194;2023-04-24T07:40:56;98866.00;;;31.75;24.16
35952;BME280;22035;51.406;16.194;2023-04-24T07:43:22;98866.63;;;31.84;24.06
35952;BME280;22035;51.406;16.194;2023-04-24T07:45:47;98867.93;;;31.77;24.11
35952;BME280;22035;51.406;16.194;2023-04-24T07:48:13;98869.56;;;31.85;24.01
35952;BME280;22035;51.406;16.194;2023-04-24T07:50:39;98868.40;;;31.77;24.11
35952;BME280;22035;51.406;16.194;2023-04-24T07:53:04;98876.83;;;31.81;24.06
35952;BME280;22035;51.406;16.194;2023-04-24T07:55:30;98876.09;;;31.75;24.12
35952;BME280;22035;51.406;16.194;2023-04-24T07:57:56;98875.15;;;31.72;24.14
35952;BME280;22035;51.406;16.194;2023-04-24T08:00:21;98875.93;;;31.81;24.04
35952;BME280;22035;51.406;16.194;2023-04-24T08:02:47;98877.03;;;31.85;24.07
35952;BME280;22035;51.406;16.194;2023-04-24T08:05:12;98877.19;;;31.78;24.10
35952;BME280;22035;51.406;16.194;2023-04-24T08:07:38;98878.61;;;31.75;24.10
35952;BME280;22035;51.406;16.194;2023-04-24T08:10:05;98877.54;;;31.83;24.01
35952;BME280;22035;51.406;16.194;2023-04-24T08:12:31;98878.54;;;31.92;23.89
35952;BME280;22035;51.406;16.194;2023-04-24T08:14:56;98879.74;;;31.81;23.99
35952;BME280;22035;51.406;16.194;2023-04-24T08:17:24;98876.93;;;31.74;24.07
35952;BME280;22035;51.406;16.194;2023-04-24T08:19:49;98879.16;;;31.83;23.94
35952;BME280;22035;51.406;16.194;2023-04-24T08:22:15;98876.90;;;31.74;24.03
35952;BME280;22035;51.406;16.194;2023-04-24T08:24:41;98875.47;;;31.91;23.82
35952;BME280;22035;51.406;16.194;2023-04-24T08:27:06;98873.07;;;31.87;23.85
35952;BME280;22035;51.406;16.194;2023-04-24T08:29:32;98878.75;;;31.81;23.92
35952;BME280;22035;51.406;16.194;2023-04-24T08:31:57;98881.26;;;31.76;23.96
35952;BME280;22035;51.406;16.194;2023-04-24T08:34:23;98886.03;;;31.71;24.01
35952;BME280;22035;51.406;16.194;2023-04-24T08:36:49;98887.60;;;31.81;23.89
35952;BME280;22035;51.406;16.194;2023-04-24T08:39:15;98886.37;;;31.79;23.91
35952;BME280;22035;51.406;16.194;2023-04-24T08:41:42;98885.96;;;31.78;23.92
35952;BME280;22035;51.406;16.194;2023-04-24T08:44:08;98885.60;;;31.84;23.82
35952;BME280;22035;51.406;16.194;2023-04-24T08:46:34;98885.02;;;31.78;23.90
35952;BME280;22035;51.406;16.194;2023-04-24T08:49:01;98879.00;;;31.76;23.91
35952;BME280;22035;51.406;16.194;2023-04-24T08:51:27;98881.80;;;31.88;23.76
35952;BME280;22035;51.406;16.194;2023-04-24T08:53:54;98877.73;;;31.81;23.84
35952;BME280;22035;51.406;16.194;2023-04-24T08:56:21;98879.35;;;31.85;23.79
35952;BME280;22035;51.406;16.194;2023-04-24T08:58:47;98877.64;;;31.75;23.92
35952;BME280;22035;51.406;16.194;2023-04-24T09:01:13;98878.41;;;31.91;23.72
35952;BME280;22035;51.406;16.194;2023-04-24T09:03:39;98879.14;;;31.94;23.68
35952;BME280;22035;51.406;16.194;2023-04-24T09:06:06;98878.32;;;31.80;23.85
35952;BME280;22035;51.406;16.194;2023-04-24T09:08:33;98876.80;;;31.89;23.74
35952;BME280;22035;51.406;16.194;2023-04-24T09:10:59;98878.40;;;31.97;23.65
35952;BME280;22035;51.406;16.194;2023-04-24T09:13:25;98875.12;;;31.71;23.97
35952;BME280;22035;51.406;16.194;2023-04-24T09:15:51;98874.17;;;31.82;23.83
35952;BME280;22035;51.406;16.194;2023-04-24T09:18:17;98874.50;;;31.81;23.83
35952;BME280;22035;51.406;16.194;2023-04-24T09:20:59;98874.68;;;31.88;23.75
35952;BME280;22035;51.406;16.194;2023-04-24T09:23:26;98875.96;;;31.87;23.76
35952;BME280;22035;51.406;16.194;2023-04-24T09:25:55;98874.29;;;31.86;23.79
35952;BME280;22035;51.406;16.194;2023-04-24T09:28:25;98874.00;;;31.79;23.88
35952;BME280;22035;51.406;16.194;2023-04-24T09:31:02;98873.20;;;31.84;23.82
35952;BME280;22035;51.406;16.194;2023-04-24T09:33:29;98873.96;;;31.89;23.74
35952;BME280;22035;51.406;16.194;2023-04-24T09:35:55;98873.12;;;31.91;23.70
35952;BME280;22035;51.406;16.194;2023-04-24T09:38:30;98871.48;;;31.91;23.71
35952;BME280;22035;51.406;16.194;2023-04-24T09:40:59;98872.85;;;31.90;23.72
35952;BME280;22035;51.406;16.194;2023-04-24T09:43:26;98875.55;;;31.95;23.63
35952;BME280;22035;51.406;16.194;2023-04-24T09:45:55;98876.97;;;31.88;23.74
35952;BME280;22035;51.406;16.194;2023-04-24T09:48:30;98874.50;;;31.85;23.77
35952;BME280;22035;51.406;16.194;2023-04-24T09:50:55;98873.97;;;31.85;23.74
35952;BME280;22035;51.406;16.194;2023-04-24T09:53:24;98874.91;;;31.85;23.74
35952;BME280;22035;51.406;16.194;2023-04-24T09:55:50;98872.86;;;31.86;23.71
35952;BME280;22035;51.406;16.194;2023-04-24T09:58:15;98873.06;;;31.91;23.65
35952;BME280;22035;51.406;16.194;2023-04-24T10:00:41;98873.00;;;31.94;23.62
35952;BME280;22035;51.406;16.194;2023-04-24T10:03:06;98878.29;;;31.88;23.69
35952;BME280;22035;51.406;16.194;2023-04-24T10:05:33;98880.52;;;31.91;23.65
35952;BME280;22035;51.406;16.194;2023-04-24T10:08:02;98878.12;;;31.86;23.70
35952;BME280;22035;51.406;16.194;2023-04-24T10:10:28;98875.65;;;31.96;23.60
35952;BME280;22035;51.406;16.194;2023-04-24T10:12:54;98875.27;;;31.83;23.75
35952;BME280;22035;51.406;16.194;2023-04-24T10:15:20;98875.19;;;31.98;23.56
35952;BME280;22035;51.406;16.194;2023-04-24T10:17:47;98871.05;;;31.84;23.72
35952;BME280;22035;51.406;16.194;2023-04-24T10:20:13;98869.35;;;31.86;23.67
35952;BME280;22035;51.406;16.194;2023-04-24T10:22:39;98869.98;;;31.79;23.75
35952;BME280;22035;51.406;16.194;2023-04-24T10:25:06;98871.87;;;31.94;23.59
35952;BME280;22035;51.406;16.194;2023-04-24T10:27:33;98875.51;;;31.90;23.62
35952;BME280;22035;51.406;16.194;2023-04-24T10:30:02;98883.73;;;31.98;23.52
35952;BME280;22035;51.406;16.194;2023-04-24T10:32:28;98880.39;;;31.94;23.55
35952;BME280;22035;51.406;16.194;2023-04-24T10:34:54;98884.13;;;32.04;23.43
35952;BME280;22035;51.406;16.194;2023-04-24T10:37:20;98880.63;;;31.83;23.75
35952;BME280;22035;51.406;16.194;2023-04-24T10:39:47;98880.68;;;31.89;23.59
35952;BME280;22035;51.406;16.194;2023-04-24T10:42:14;98882.14;;;31.95;23.53
35952;BME280;22035;51.406;16.194;2023-04-24T10:44:40;98879.32;;;31.95;23.50
35952;BME280;22035;51.406;16.194;2023-04-24T10:47:05;98877.86;;;31.81;23.67
35952;BME280;22035;51.406;16.194;2023-04-24T10:49:37;98877.47;;;31.88;23.58
35952;BME280;22035;51.406;16.194;2023-04-24T10:52:04;98878.39;;;31.85;23.61
35952;BME280;22035;51.406;16.194;2023-04-24T10:54:34;98879.19;;;31.92;23.53
35952;BME280;22035;51.406;16.194;2023-04-24T10:57:32;98879.17;;;31.86;23.59
35952;BME280;22035;51.406;16.194;2023-04-24T11:00:16;98881.12;;;31.93;23.48
35952;BME280;22035;51.406;16.194;2023-04-24T11:02:46;98881.08;;;31.95;23.45
35952;BME280;22035;51.406;16.194;2023-04-24T11:05:14;98884.47;;;32.03;23.36
35952;BME280;22035;51.406;16.194;2023-04-24T11:08:10;98885.50;;;32.10;23.61
35952;BME280;22035;51.406;16.194;2023-04-24T11:10:38;98891.14;;;32.17;23.76
35952;BME280;22035;51.406;16.194;2023-04-24T11:13:04;98891.12;;;32.26;23.69
35952;BME280;22035;51.406;16.194;2023-04-24T11:15:29;98892.37;;;32.11;23.80
35952;BME280;22035;51.406;16.194;2023-04-24T11:17:55;98897.95;;;32.12;23.73
35952;BME280;22035;51.406;16.194;2023-04-24T11:20:23;98899.18;;;32.02;23.85
35952;BME280;22035;51.406;16.194;2023-04-24T11:22:53;98902.76;;;32.13;24.03
35952;BME280;22035;51.406;16.194;2023-04-24T11:25:19;98904.17;;;32.12;24.08
35952;BME280;22035;51.406;16.194;2023-04-24T11:27:45;98905.68;;;32.17;24.10
35952;BME280;22035;51.406;16.194;2023-04-24T11:30:10;98909.32;;;32.06;24.31
35952;BME280;22035;51.406;16.194;2023-04-24T11:32:37;98909.34;;;32.17;24.11
35952;BME280;22035;51.406;16.194;2023-04-24T11:35:05;98913.69;;;32.05;24.25
35952;BME280;22035;51.406;16.194;2023-04-24T11:37:34;98917.25;;;32.07;24.01
35952;BME280;22035;51.406;16.194;2023-04-24T11:40:01;98914.65;;;32.08;24.02
35952;BME280;22035;51.406;16.194;2023-04-24T11:42:28;98912.66;;;32.14;24.15
35952;BME280;22035;51.406;16.194;2023-04-24T11:44:55;98917.87;;;32.07;24.11
35952;BME280;22035;51.406;16.194;2023-04-24T11:47:27;98919.42;;;31.97;24.20
35952;BME280;22035;51.406;16.194;2023-04-24T11:49:53;98919.66;;;31.92;24.28
35952;BME280;22035;51.406;16.194;2023-04-24T11:52:19;98923.31;;;32.07;24.19
35952;BME280;22035;51.406;16.194;2023-04-24T11:54:48;98922.81;;;32.23;24.13
35952;BME280;22035;51.406;16.194;2023-04-24T11:57:14;98919.65;;;32.02;24.48
35952;BME280;22035;51.406;16.194;2023-04-24T11:59:40;98922.51;;;32.05;24.43
35952;BME280;22035;51.406;16.194;2023-04-24T12:02:06;98924.65;;;32.09;24.34
35952;BME280;22035;51.406;16.194;2023-04-24T12:04:39;98923.55;;;32.17;24.35
35952;BME280;22035;51.406;16.194;2023-04-24T12:07:05;98921.06;;;32.12;24.32
35952;BME280;22035;51.406;16.194;2023-04-24T12:09:40;98920.15;;;32.14;24.40
35952;BME280;22035;51.406;16.194;2023-04-24T12:12:06;98918.84;;;32.13;24.47
35952;BME280;22035;51.406;16.194;2023-04-24T12:14:32;98917.33;;;32.03;24.64
35952;BME280;22035;51.406;16.194;2023-04-24T12:16:57;98913.37;;;32.18;24.36
35952;BME280;22035;51.406;16.194;2023-04-24T12:19:24;98913.78;;;32.22;24.40
35952;BME280;22035;51.406;16.194;2023-04-24T12:22:01;98909.88;;;32.23;24.33
35952;BME280;22035;51.406;16.194;2023-04-24T12:24:27;98907.34;;;32.00;24.67
35952;BME280;22035;51.406;16.194;2023-04-24T12:26:52;98908.47;;;32.13;24.60
35952;BME280;22035;51.406;16.194;2023-04-24T12:29:20;98908.37;;;32.15;24.63
35952;BME280;22035;51.406;16.194;2023-04-24T12:31:46;98908.76;;;32.10;24.80
35952;BME280;22035;51.406;16.194;2023-04-24T12:34:18;98910.62;;;32.06;24.79
35952;BME280;22035;51.406;16.194;2023-04-24T12:36:43;98909.11;;;32.14;24.60
35952;BME280;22035;51.406;16.194;2023-04-24T12:39:14;98910.10;;;32.13;24.67
35952;BME280;22035;51.406;16.194;2023-04-24T12:41:53;98912.06;;;32.14;24.80
35952;BME280;22035;51.406;16.194;2023-04-24T12:44:19;98914.46;;;32.22;24.76
35952;BME280;22035;51.406;16.194;2023-04-24T12:46:45;98913.87;;;32.26;24.67